Yardley, Pennsylvania
Current Conditions -  °F | °C
As of 6:53 AM on Friday 21 Nov 2014 (Local Time) from KTTN Reporting Station
Clear Clear  
Wind Chill: -8°   Ceiling: Unl
Heat Index: -3°   Visibility: 10mi
Dew Point: -13°   Wind: 7mph
Humidity: 49%   Direction: 270°W
Pressure: 30.23"   Gusts: NA
Location:  40.1994°N, 74.8145°W
Report Text: KTTN 211153Z 27006KT 10SM CLR M03/M13 A3023 RMK AO2 SLP234 T10331128 11017 21033 53032
Loading
Personal Weather Stations






























Interactive Weather Map New forecast layout! Learn more

10-Day Weather Forecast

Advertisements
Track Severe Weather on mobile